sensor_id;sensor_type;location;lat;lon;timestamp;pressure;altitude;pressure_sealevel;temperature;humidity
38880;BME280;25887;30.194;-97.880;2023-05-27T00:01:25;98358.94;;;31.48;39.25
38880;BME280;25887;30.194;-97.880;2023-05-27T00:03:51;98362.56;;;31.47;39.40
38880;BME280;25887;30.194;-97.880;2023-05-27T00:06:18;98359.06;;;31.46;39.56
38880;BME280;25887;30.194;-97.880;2023-05-27T00:08:44;98367.28;;;31.43;39.42
38880;BME280;25887;30.194;-97.880;2023-05-27T00:11:10;98362.25;;;31.40;39.57
38880;BME280;25887;30.194;-97.880;2023-05-27T00:13:36;98361.53;;;31.38;39.78
38880;BME280;25887;30.194;-97.880;2023-05-27T00:16:02;98359.13;;;31.35;39.97
38880;BME280;25887;30.194;-97.880;2023-05-27T00:18:28;98347.09;;;31.31;39.89
38880;BME280;25887;30.194;-97.880;2023-05-27T00:20:59;98353.53;;;31.28;39.95
38880;BME280;25887;30.194;-97.880;2023-05-27T00:23:25;98340.78;;;31.22;39.83
38880;BME280;25887;30.194;-97.880;2023-05-27T00:25:51;98348.25;;;31.17;39.86
38880;BME280;25887;30.194;-97.880;2023-05-27T00:28:18;98350.34;;;31.14;40.04
38880;BME280;25887;30.194;-97.880;2023-05-27T00:30:44;98355.88;;;31.11;39.79
38880;BME280;25887;30.194;-97.880;2023-05-27T00:33:10;98368.59;;;31.07;40.09
38880;BME280;25887;30.194;-97.880;2023-05-27T00:35:36;98370.63;;;31.03;40.33
38880;BME280;25887;30.194;-97.880;2023-05-27T00:38:04;98373.69;;;30.99;40.20
38880;BME280;25887;30.194;-97.880;2023-05-27T00:40:31;98369.47;;;30.96;40.19
38880;BME280;25887;30.194;-97.880;2023-05-27T00:43:02;98375.88;;;30.94;40.34
38880;BME280;25887;30.194;-97.880;2023-05-27T00:45:28;98383.28;;;30.90;40.42
38880;BME280;25887;30.194;-97.880;2023-05-27T00:47:54;98380.84;;;30.87;40.26
38880;BME280;25887;30.194;-97.880;2023-05-27T00:50:20;98365.44;;;30.81;40.52
38880;BME280;25887;30.194;-97.880;2023-05-27T00:52:48;98366.53;;;30.78;40.46
38880;BME280;25887;30.194;-97.880;2023-05-27T00:55:14;98375.59;;;30.76;40.43
38880;BME280;25887;30.194;-97.880;2023-05-27T00:57:40;98382.81;;;30.74;40.85
38880;BME280;25887;30.194;-97.880;2023-05-27T01:00:08;98380.44;;;30.71;40.72
38880;BME280;25887;30.194;-97.880;2023-05-27T01:02:38;98380.56;;;30.69;40.75
38880;BME280;25887;30.194;-97.880;2023-05-27T01:05:14;98380.91;;;30.65;40.77
38880;BME280;25887;30.194;-97.880;2023-05-27T01:08:01;98378.66;;;30.60;41.13
38880;BME280;25887;30.194;-97.880;2023-05-27T01:10:42;98385.28;;;30.55;40.99
38880;BME280;25887;30.194;-97.880;2023-05-27T01:13:36;98395.41;;;30.49;41.04
38880;BME280;25887;30.194;-97.880;2023-05-27T01:16:11;98403.63;;;30.46;41.01
38880;BME280;25887;30.194;-97.880;2023-05-27T01:18:39;98402.09;;;30.44;41.43
38880;BME280;25887;30.194;-97.880;2023-05-27T01:21:12;98400.50;;;30.41;41.31
38880;BME280;25887;30.194;-97.880;2023-05-27T01:23:47;98400.75;;;30.38;41.44
38880;BME280;25887;30.194;-97.880;2023-05-27T01:26:15;98403.41;;;30.38;41.42
38880;BME280;25887;30.194;-97.880;2023-05-27T01:28:42;98410.75;;;30.35;41.51
38880;BME280;25887;30.194;-97.880;2023-05-27T01:31:29;98404.59;;;30.34;41.65
38880;BME280;25887;30.194;-97.880;2023-05-27T01:34:03;98396.91;;;30.31;42.11
38880;BME280;25887;30.194;-97.880;2023-05-27T01:36:38;98392.81;;;30.27;41.51
38880;BME280;25887;30.194;-97.880;2023-05-27T01:39:08;98398.38;;;30.24;42.00
38880;BME280;25887;30.194;-97.880;2023-05-27T01:41:38;98402.00;;;30.23;41.86
38880;BME280;25887;30.194;-97.880;2023-05-27T01:44:06;98403.19;;;30.19;42.00
38880;BME280;25887;30.194;-97.880;2023-05-27T01:46:32;98406.22;;;30.14;41.88
38880;BME280;25887;30.194;-97.880;2023-05-27T01:49:00;98412.50;;;30.13;41.90
38880;BME280;25887;30.194;-97.880;2023-05-27T01:51:26;98418.16;;;30.09;42.07
38880;BME280;25887;30.194;-97.880;2023-05-27T01:53:52;98418.25;;;30.07;42.12
38880;BME280;25887;30.194;-97.880;2023-05-27T01:56:18;98417.75;;;30.02;42.12
38880;BME280;25887;30.194;-97.880;2023-05-27T01:58:45;98411.88;;;29.99;42.48
38880;BME280;25887;30.194;-97.880;2023-05-27T02:01:19;98425.34;;;29.95;42.32
38880;BME280;25887;30.194;-97.880;2023-05-27T02:03:47;98422.94;;;29.92;42.03
38880;BME280;25887;30.194;-97.880;2023-05-27T02:06:14;98425.00;;;29.89;42.38
38880;BME280;25887;30.194;-97.880;2023-05-27T02:08:40;98427.16;;;29.84;42.42
38880;BME280;25887;30.194;-97.880;2023-05-27T02:11:06;98436.28;;;29.80;42.20
38880;BME280;25887;30.194;-97.880;2023-05-27T02:13:32;98423.16;;;29.78;42.74
38880;BME280;25887;30.194;-97.880;2023-05-27T02:15:59;98432.34;;;29.74;42.72
38880;BME280;25887;30.194;-97.880;2023-05-27T02:18:25;98424.72;;;29.69;42.67
38880;BME280;25887;30.194;-97.880;2023-05-27T02:20:51;98433.91;;;29.65;42.82
38880;BME280;25887;30.194;-97.880;2023-05-27T02:23:17;98434.09;;;29.62;42.61
38880;BME280;25887;30.194;-97.880;2023-05-27T02:25:46;98430.88;;;29.59;42.72
38880;BME280;25887;30.194;-97.880;2023-05-27T02:28:13;98437.22;;;29.56;42.66
38880;BME280;25887;30.194;-97.880;2023-05-27T02:30:40;98425.19;;;29.52;42.87
38880;BME280;25887;30.194;-97.880;2023-05-27T02:33:06;98430.63;;;29.51;43.02
38880;BME280;25887;30.194;-97.880;2023-05-27T02:35:32;98439.72;;;29.47;43.32
38880;BME280;25887;30.194;-97.880;2023-05-27T02:37:58;98444.28;;;29.45;43.24
38880;BME280;25887;30.194;-97.880;2023-05-27T02:40:28;98449.78;;;29.41;43.53
38880;BME280;25887;30.194;-97.880;2023-05-27T02:42:57;98451.84;;;29.38;43.40
38880;BME280;25887;30.194;-97.880;2023-05-27T02:45:25;98447.75;;;29.34;43.46
38880;BME280;25887;30.194;-97.880;2023-05-27T02:47:51;98466.38;;;29.32;43.73
38880;BME280;25887;30.194;-97.880;2023-05-27T02:50:17;98462.28;;;29.28;43.62
38880;BME280;25887;30.194;-97.880;2023-05-27T02:52:44;98466.09;;;29.24;44.12
38880;BME280;25887;30.194;-97.880;2023-05-27T02:55:12;98477.16;;;29.18;43.81
38880;BME280;25887;30.194;-97.880;2023-05-27T02:57:38;98480.16;;;29.13;43.94
38880;BME280;25887;30.194;-97.880;2023-05-27T03:00:05;98476.16;;;29.08;44.13
38880;BME280;25887;30.194;-97.880;2023-05-27T03:02:34;98469.41;;;29.04;44.10
38880;BME280;25887;30.194;-97.880;2023-05-27T03:05:01;98470.59;;;29.00;44.36
38880;BME280;25887;30.194;-97.880;2023-05-27T03:07:27;98472.63;;;28.96;44.50
38880;BME280;25887;30.194;-97.880;2023-05-27T03:09:57;98480.88;;;28.92;44.67
38880;BME280;25887;30.194;-97.880;2023-05-27T03:12:24;98485.63;;;28.86;44.34
38880;BME280;25887;30.194;-97.880;2023-05-27T03:14:50;98494.88;;;28.81;44.89
38880;BME280;25887;30.194;-97.880;2023-05-27T03:17:19;98493.75;;;28.72;44.80
38880;BME280;25887;30.194;-97.880;2023-05-27T03:19:46;98485.28;;;28.67;44.68
38880;BME280;25887;30.194;-97.880;2023-05-27T03:22:12;98493.66;;;28.61;44.94
38880;BME280;25887;30.194;-97.880;2023-05-27T03:24:39;98490.59;;;28.54;44.79
38880;BME280;25887;30.194;-97.880;2023-05-27T03:27:06;98485.56;;;28.51;44.88
38880;BME280;25887;30.194;-97.880;2023-05-27T03:29:32;98494.63;;;28.47;45.00
38880;BME280;25887;30.194;-97.880;2023-05-27T03:31:58;98509.03;;;28.43;45.22
38880;BME280;25887;30.194;-97.880;2023-05-27T03:34:24;98502.25;;;28.39;45.06
38880;BME280;25887;30.194;-97.880;2023-05-27T03:36:51;98504.28;;;28.36;45.28
38880;BME280;25887;30.194;-97.880;2023-05-27T03:39:17;98488.88;;;28.29;45.71
38880;BME280;25887;30.194;-97.880;2023-05-27T03:41:43;98487.47;;;28.24;45.82
38880;BME280;25887;30.194;-97.880;2023-05-27T03:44:10;98497.53;;;28.19;45.62
38880;BME280;25887;30.194;-97.880;2023-05-27T03:46:36;98497.72;;;28.16;45.93
38880;BME280;25887;30.194;-97.880;2023-05-27T03:49:02;98496.25;;;28.12;45.85
38880;BME280;25887;30.194;-97.880;2023-05-27T03:51:28;98512.41;;;28.07;45.94
38880;BME280;25887;30.194;-97.880;2023-05-27T03:53:55;98517.81;;;28.06;46.08
38880;BME280;25887;30.194;-97.880;2023-05-27T03:56:21;98509.28;;;28.02;46.37
38880;BME280;25887;30.194;-97.880;2023-05-27T03:58:49;98515.59;;;27.99;46.60
38880;BME280;25887;30.194;-97.880;2023-05-27T04:01:15;98539.69;;;27.95;46.59
38880;BME280;25887;30.194;-97.880;2023-05-27T04:03:46;98543.38;;;27.92;46.26
38880;BME280;25887;30.194;-97.880;2023-05-27T04:06:12;98539.16;;;27.90;46.24
38880;BME280;25887;30.194;-97.880;2023-05-27T04:08:38;98533.25;;;27.86;46.47
38880;BME280;25887;30.194;-97.880;2023-05-27T04:11:10;98537.03;;;27.82;46.40
38880;BME280;25887;30.194;-97.880;2023-05-27T04:13:38;98549.69;;;27.77;47.04
38880;BME280;25887;30.194;-97.880;2023-05-27T04:16:04;98548.34;;;27.71;46.94
38880;BME280;25887;30.194;-97.880;2023-05-27T04:18:31;98550.50;;;27.65;47.05
38880;BME280;25887;30.194;-97.880;2023-05-27T04:24:25;98569.16;;;27.49;46.91
38880;BME280;25887;30.194;-97.880;2023-05-27T04:30:13;98565.41;;;27.39;47.15
38880;BME280;25887;30.194;-97.880;2023-05-27T04:32:40;98571.09;;;27.33;47.61
38880;BME280;25887;30.194;-97.880;2023-05-27T04:35:24;98574.69;;;27.32;47.23
38880;BME280;25887;30.194;-97.880;2023-05-27T04:37:52;98583.09;;;27.24;47.80
38880;BME280;25887;30.194;-97.880;2023-05-27T04:40:50;98582.22;;;27.24;47.32
38880;BME280;25887;30.194;-97.880;2023-05-27T04:43:21;98573.13;;;27.15;47.48
38880;BME280;25887;30.194;-97.880;2023-05-27T04:45:47;98574.38;;;27.09;47.67
38880;BME280;25887;30.194;-97.880;2023-05-27T04:48:14;98560.63;;;27.04;48.10
38880;BME280;25887;30.194;-97.880;2023-05-27T04:50:43;98555.63;;;27.00;48.16
38880;BME280;25887;30.194;-97.880;2023-05-27T04:53:09;98551.50;;;26.96;48.08
38880;BME280;25887;30.194;-97.880;2023-05-27T04:55:35;98550.75;;;26.93;47.86
38880;BME280;25887;30.194;-97.880;2023-05-27T04:58:02;98538.59;;;26.91;48.10
38880;BME280;25887;30.194;-97.880;2023-05-27T05:00:29;98542.28;;;26.88;48.22
38880;BME280;25887;30.194;-97.880;2023-05-27T05:03:07;98528.53;;;26.83;48.57
38880;BME280;25887;30.194;-97.880;2023-05-27T05:05:34;98523.59;;;26.79;48.38
38880;BME280;25887;30.194;-97.880;2023-05-27T05:08:00;98515.09;;;26.74;48.13
38880;BME280;25887;30.194;-97.880;2023-05-27T05:10:28;98512.69;;;26.71;48.33
38880;BME280;25887;30.194;-97.880;2023-05-27T05:12:55;98517.19;;;26.69;48.52
38880;BME280;25887;30.194;-97.880;2023-05-27T05:15:21;98516.44;;;26.66;48.65
38880;BME280;25887;30.194;-97.880;2023-05-27T05:17:48;98518.34;;;26.64;48.96
38880;BME280;25887;30.194;-97.880;2023-05-27T05:20:14;98524.56;;;26.63;48.87
38880;BME280;25887;30.194;-97.880;2023-05-27T05:22:40;98528.97;;;26.63;48.95
38880;BME280;25887;30.194;-97.880;2023-05-27T05:25:08;98531.72;;;26.61;48.93
38880;BME280;25887;30.194;-97.880;2023-05-27T05:27:34;98536.13;;;26.61;49.10
38880;BME280;25887;30.194;-97.880;2023-05-27T05:30:02;98532.75;;;26.59;48.94
38880;BME280;25887;30.194;-97.880;2023-05-27T05:32:28;98539.06;;;26.56;49.41
38880;BME280;25887;30.194;-97.880;2023-05-27T05:34:54;98543.47;;;26.56;49.22
38880;BME280;25887;30.194;-97.880;2023-05-27T05:37:21;98540.94;;;26.54;49.52
38880;BME280;25887;30.194;-97.880;2023-05-27T05:39:47;98556.75;;;26.54;49.45
38880;BME280;25887;30.194;-97.880;2023-05-27T05:42:13;98555.91;;;26.54;49.37
38880;BME280;25887;30.194;-97.880;2023-05-27T05:44:39;98570.09;;;26.51;49.87
38880;BME280;25887;30.194;-97.880;2023-05-27T05:47:07;98564.00;;;26.51;49.51
38880;BME280;25887;30.194;-97.880;2023-05-27T05:49:33;98576.31;;;26.50;49.43
38880;BME280;25887;30.194;-97.880;2023-05-27T05:52:00;98588.06;;;26.45;49.65
38880;BME280;25887;30.194;-97.880;2023-05-27T05:54:26;98595.44;;;26.40;49.77
38880;BME280;25887;30.194;-97.880;2023-05-27T05:56:52;98581.00;;;26.31;49.93
38880;BME280;25887;30.194;-97.880;2023-05-27T05:59:18;98580.34;;;26.27;49.84
38880;BME280;25887;30.194;-97.880;2023-05-27T06:01:44;98575.44;;;26.21;50.13
38880;BME280;25887;30.194;-97.880;2023-05-27T06:04:11;98570.34;;;26.18;49.92
38880;BME280;25887;30.194;-97.880;2023-05-27T06:06:37;98567.91;;;26.15;49.85
38880;BME280;25887;30.194;-97.880;2023-05-27T06:09:03;98567.03;;;26.15;50.09
38880;BME280;25887;30.194;-97.880;2023-05-27T06:11:29;98573.34;;;26.12;50.39
38880;BME280;25887;30.194;-97.880;2023-05-27T06:13:55;98574.31;;;26.11;50.41
38880;BME280;25887;30.194;-97.880;2023-05-27T06:16:21;98570.06;;;26.08;50.38
38880;BME280;25887;30.194;-97.880;2023-05-27T06:18:48;98567.53;;;26.07;50.12
38880;BME280;25887;30.194;-97.880;2023-05-27T06:21:14;98576.34;;;26.06;50.35
38880;BME280;25887;30.194;-97.880;2023-05-27T06:23:40;98585.88;;;26.08;50.60
38880;BME280;25887;30.194;-97.880;2023-05-27T06:26:06;98578.91;;;26.07;50.69
38880;BME280;25887;30.194;-97.880;2023-05-27T06:28:33;98566.59;;;26.08;50.29
38880;BME280;25887;30.194;-97.880;2023-05-27T06:30:59;98561.34;;;26.08;50.46
38880;BME280;25887;30.194;-97.880;2023-05-27T06:33:25;98537.69;;;26.06;50.69
38880;BME280;25887;30.194;-97.880;2023-05-27T06:35:51;98523.69;;;26.06;50.70
38880;BME280;25887;30.194;-97.880;2023-05-27T06:38:17;98526.41;;;26.04;50.62
38880;BME280;25887;30.194;-97.880;2023-05-27T06:40:44;98536.31;;;26.01;50.69
38880;BME280;25887;30.194;-97.880;2023-05-27T06:43:10;98546.25;;;25.96;50.81
38880;BME280;25887;30.194;-97.880;2023-05-27T06:45:36;98546.63;;;25.90;50.55
38880;BME280;25887;30.194;-97.880;2023-05-27T06:48:02;98551.22;;;25.86;50.72
38880;BME280;25887;30.194;-97.880;2023-05-27T06:50:28;98541.66;;;25.85;50.84
38880;BME280;25887;30.194;-97.880;2023-05-27T06:52:54;98548.97;;;25.80;50.99
38880;BME280;25887;30.194;-97.880;2023-05-27T06:55:20;98548.31;;;25.76;50.91
38880;BME280;25887;30.194;-97.880;2023-05-27T06:57:47;98534.47;;;25.73;51.01
38880;BME280;25887;30.194;-97.880;2023-05-27T07:00:13;98531.84;;;25.73;51.11
38880;BME280;25887;30.194;-97.880;2023-05-27T07:02:39;98516.97;;;25.72;50.65
38880;BME280;25887;30.194;-97.880;2023-05-27T07:05:06;98506.63;;;25.69;51.26
38880;BME280;25887;30.194;-97.880;2023-05-27T07:07:32;98493.63;;;25.66;51.07
38880;BME280;25887;30.194;-97.880;2023-05-27T07:09:58;98484.03;;;25.65;51.28
38880;BME280;25887;30.194;-97.880;2023-05-27T07:12:24;98487.63;;;25.64;51.02
38880;BME280;25887;30.194;-97.880;2023-05-27T07:14:50;98502.66;;;25.62;51.38
38880;BME280;25887;30.194;-97.880;2023-05-27T07:17:17;98516.75;;;25.61;51.36
38880;BME280;25887;30.194;-97.880;2023-05-27T07:19:43;98522.06;;;25.59;51.51
38880;BME280;25887;30.194;-97.880;2023-05-27T07:22:09;98523.88;;;25.59;51.54
38880;BME280;25887;30.194;-97.880;2023-05-27T07:24:35;98530.91;;;25.58;51.41
38880;BME280;25887;30.194;-97.880;2023-05-27T07:27:01;98521.34;;;25.57;51.47
38880;BME280;25887;30.194;-97.880;2023-05-27T07:29:27;98514.28;;;25.58;51.54
38880;BME280;25887;30.194;-97.880;2023-05-27T07:31:54;98523.13;;;25.56;51.75
38880;BME280;25887;30.194;-97.880;2023-05-27T07:34:20;98528.38;;;25.56;51.66
38880;BME280;25887;30.194;-97.880;2023-05-27T07:36:47;98535.44;;;25.56;51.56
38880;BME280;25887;30.194;-97.880;2023-05-27T07:39:14;98534.69;;;25.54;51.59
38880;BME280;25887;30.194;-97.880;2023-05-27T07:41:40;98532.13;;;25.52;51.85
38880;BME280;25887;30.194;-97.880;2023-05-27T07:44:07;98531.47;;;25.49;51.85
38880;BME280;25887;30.194;-97.880;2023-05-27T07:46:34;98524.75;;;25.43;51.87
38880;BME280;25887;30.194;-97.880;2023-05-27T07:49:00;98534.53;;;25.41;51.83
38880;BME280;25887;30.194;-97.880;2023-05-27T07:51:26;98537.34;;;25.38;51.71
38880;BME280;25887;30.194;-97.880;2023-05-27T07:53:52;98537.41;;;25.37;51.87
38880;BME280;25887;30.194;-97.880;2023-05-27T07:56:20;98548.03;;;25.35;51.99
38880;BME280;25887;30.194;-97.880;2023-05-27T07:58:46;98544.91;;;25.28;52.01
38880;BME280;25887;30.194;-97.880;2023-05-27T08:01:12;98553.16;;;25.22;52.07
38880;BME280;25887;30.194;-97.880;2023-05-27T08:03:39;98549.94;;;25.17;51.96
38880;BME280;25887;30.194;-97.880;2023-05-27T08:06:06;98540.44;;;25.15;52.23
38880;BME280;25887;30.194;-97.880;2023-05-27T08:08:32;98541.44;;;25.12;52.20
38880;BME280;25887;30.194;-97.880;2023-05-27T08:10:58;98542.56;;;25.08;52.20
38880;BME280;25887;30.194;-97.880;2023-05-27T08:13:25;98548.78;;;25.07;52.26
38880;BME280;25887;30.194;-97.880;2023-05-27T08:15:52;98549.88;;;25.03;52.16
38880;BME280;25887;30.194;-97.880;2023-05-27T08:18:18;98534.25;;;25.00;51.94
38880;BME280;25887;30.194;-97.880;2023-05-27T08:20:44;98536.03;;;24.99;52.21
38880;BME280;25887;30.194;-97.880;2023-05-27T08:23:10;98544.75;;;25.00;52.39
38880;BME280;25887;30.194;-97.880;2023-05-27T08:25:36;98538.66;;;24.99;52.51
38880;BME280;25887;30.194;-97.880;2023-05-27T08:28:02;98534.34;;;24.98;52.47
38880;BME280;25887;30.194;-97.880;2023-05-27T08:30:29;98530.25;;;24.93;52.36
38880;BME280;25887;30.194;-97.880;2023-05-27T08:32:56;98534.91;;;24.88;52.46
38880;BME280;25887;30.194;-97.880;2023-05-27T08:35:22;98534.16;;;24.86;52.51
38880;BME280;25887;30.194;-97.880;2023-05-27T08:37:49;98539.59;;;24.83;52.28
38880;BME280;25887;30.194;-97.880;2023-05-27T08:40:17;98536.19;;;24.81;52.53
38880;BME280;25887;30.194;-97.880;2023-05-27T08:42:45;98544.16;;;24.79;52.79
38880;BME280;25887;30.194;-97.880;2023-05-27T08:45:12;98534.69;;;24.77;52.43
38880;BME280;25887;30.194;-97.880;2023-05-27T08:47:38;98532.13;;;24.75;52.78
38880;BME280;25887;30.194;-97.880;2023-05-27T08:50:06;98531.25;;;24.74;52.78
38880;BME280;25887;30.194;-97.880;2023-05-27T08:52:32;98529.56;;;24.73;52.66
38880;BME280;25887;30.194;-97.880;2023-05-27T08:55:00;98530.41;;;24.74;52.87
38880;BME280;25887;30.194;-97.880;2023-05-27T08:57:32;98533.97;;;24.73;52.88
38880;BME280;25887;30.194;-97.880;2023-05-27T08:59:59;98523.84;;;24.67;52.88
38880;BME280;25887;30.194;-97.880;2023-05-27T09:02:27;98527.44;;;24.64;52.91
38880;BME280;25887;30.194;-97.880;2023-05-27T09:04:54;98520.69;;;24.60;52.71
38880;BME280;25887;30.194;-97.880;2023-05-27T09:07:21;98519.06;;;24.58;53.08
38880;BME280;25887;30.194;-97.880;2023-05-27T09:09:57;98526.19;;;24.56;53.03
38880;BME280;25887;30.194;-97.880;2023-05-27T09:12:25;98529.13;;;24.50;53.05
38880;BME280;25887;30.194;-97.880;2023-05-27T09:14:53;98529.31;;;24.47;52.87
38880;BME280;25887;30.194;-97.880;2023-05-27T09:17:23;98525.84;;;24.46;53.10
38880;BME280;25887;30.194;-97.880;2023-05-27T09:19:52;98527.72;;;24.44;53.36
38880;BME280;25887;30.194;-97.880;2023-05-27T09:22:26;98535.66;;;24.42;52.93
38880;BME280;25887;30.194;-97.880;2023-05-27T09:24:52;98549.72;;;24.41;53.26
38880;BME280;25887;30.194;-97.880;2023-05-27T09:27:29;98541.06;;;24.39;53.33
38880;BME280;25887;30.194;-97.880;2023-05-27T09:29:56;98540.41;;;24.36;53.34
38880;BME280;25887;30.194;-97.880;2023-05-27T09:32:30;98540.56;;;24.33;53.01
38880;BME280;25887;30.194;-97.880;2023-05-27T09:34:58;98536.44;;;24.27;53.02
38880;BME280;25887;30.194;-97.880;2023-05-27T09:37:25;98546.09;;;24.27;53.51
38880;BME280;25887;30.194;-97.880;2023-05-27T09:40:04;98555.75;;;24.26;53.36
38880;BME280;25887;30.194;-97.880;2023-05-27T09:42:44;98552.34;;;24.24;53.53
38880;BME280;25887;30.194;-97.880;2023-05-27T09:45:15;98561.16;;;24.23;53.29
38880;BME280;25887;30.194;-97.880;2023-05-27T09:47:47;98568.19;;;24.23;53.67
38880;BME280;25887;30.194;-97.880;2023-05-27T09:50:16;98566.56;;;24.20;53.57
38880;BME280;25887;30.194;-97.880;2023-05-27T09:52:44;98568.59;;;24.15;53.53
38880;BME280;25887;30.194;-97.880;2023-05-27T09:55:12;98572.28;;;24.11;53.45
38880;BME280;25887;30.194;-97.880;2023-05-27T09:57:41;98579.41;;;24.09;53.96
38880;BME280;25887;30.194;-97.880;2023-05-27T10:00:09;98579.59;;;24.06;53.62
38880;BME280;25887;30.194;-97.880;2023-05-27T10:02:42;98580.75;;;24.00;54.04
38880;BME280;25887;30.194;-97.880;2023-05-27T10:05:10;98578.19;;;23.99;54.15
38880;BME280;25887;30.194;-97.880;2023-05-27T10:07:39;98571.25;;;23.98;54.02
38880;BME280;25887;30.194;-97.880;2023-05-27T10:10:07;98576.66;;;23.95;53.74
38880;BME280;25887;30.194;-97.880;2023-05-27T10:12:45;98569.53;;;23.97;54.07
38880;BME280;25887;30.194;-97.880;2023-05-27T10:15:30;98572.25;;;23.95;53.79
38880;BME280;25887;30.194;-97.880;2023-05-27T10:18:04;98572.50;;;23.90;54.14
38880;BME280;25887;30.194;-97.880;2023-05-27T10:20:35;98571.56;;;23.92;53.50
38880;BME280;25887;30.194;-97.880;2023-05-27T10:23:12;98568.47;;;23.83;53.79
38880;BME280;25887;30.194;-97.880;2023-05-27T10:25:39;98571.03;;;23.85;53.49
38880;BME280;25887;30.194;-97.880;2023-05-27T10:28:06;98567.94;;;23.77;53.87
38880;BME280;25887;30.194;-97.880;2023-05-27T10:30:46;98563.53;;;23.77;53.90
38880;BME280;25887;30.194;-97.880;2023-05-27T10:33:14;98566.34;;;23.74;53.98
38880;BME280;25887;30.194;-97.880;2023-05-27T10:35:41;98562.84;;;23.74;53.93
38880;BME280;25887;30.194;-97.880;2023-05-27T10:38:17;98554.19;;;23.72;54.29
38880;BME280;25887;30.194;-97.880;2023-05-27T10:40:47;98545.78;;;23.65;54.39
38880;BME280;25887;30.194;-97.880;2023-05-27T10:43:16;98544.09;;;23.64;54.54
38880;BME280;25887;30.194;-97.880;2023-05-27T10:45:42;98541.47;;;23.64;54.64
38880;BME280;25887;30.194;-97.880;2023-05-27T10:48:17;98528.34;;;23.64;54.50
38880;BME280;25887;30.194;-97.880;2023-05-27T10:50:49;98543.69;;;23.72;53.82
38880;BME280;25887;30.194;-97.880;2023-05-27T10:53:19;98540.63;;;23.63;54.28
38880;BME280;25887;30.194;-97.880;2023-05-27T10:55:50;98547.56;;;23.65;54.38
38880;BME280;25887;30.194;-97.880;2023-05-27T10:58:17;98547.66;;;23.63;54.21
38880;BME280;25887;30.194;-97.880;2023-05-27T11:00:51;98558.91;;;23.65;54.29
38880;BME280;25887;30.194;-97.880;2023-05-27T11:03:26;98562.44;;;23.64;54.44
38880;BME280;25887;30.194;-97.880;2023-05-27T11:06:06;98551.03;;;23.65;54.39
38880;BME280;25887;30.194;-97.880;2023-05-27T11:08:32;98546.78;;;23.62;54.79
38880;BME280;25887;30.194;-97.880;2023-05-27T11:11:05;98551.13;;;23.63;54.92
38880;BME280;25887;30.194;-97.880;2023-05-27T11:13:38;98542.41;;;23.63;54.92
38880;BME280;25887;30.194;-97.880;2023-05-27T11:16:06;98537.22;;;23.61;55.00
38880;BME280;25887;30.194;-97.880;2023-05-27T11:18:37;98531.91;;;23.63;54.60
38880;BME280;25887;30.194;-97.880;2023-05-27T11:21:05;98523.19;;;23.62;54.94
38880;BME280;25887;30.194;-97.880;2023-05-27T11:23:56;98520.56;;;23.62;54.88
38880;BME280;25887;30.194;-97.880;2023-05-27T11:26:23;98524.31;;;23.57;54.61
38880;BME280;25887;30.194;-97.880;2023-05-27T11:28:51;98531.31;;;23.56;54.78
38880;BME280;25887;30.194;-97.880;2023-05-27T11:31:27;98537.38;;;23.58;54.76
38880;BME280;25887;30.194;-97.880;2023-05-27T11:33:53;98533.94;;;23.56;54.92
38880;BME280;25887;30.194;-97.880;2023-05-27T11:36:20;98541.06;;;23.54;54.75
38880;BME280;25887;30.194;-97.880;2023-05-27T11:38:59;98541.97;;;23.53;54.70
38880;BME280;25887;30.194;-97.880;2023-05-27T11:41:29;98547.31;;;23.52;55.15
38880;BME280;25887;30.194;-97.880;2023-05-27T11:44:03;98553.41;;;23.52;55.03
38880;BME280;25887;30.194;-97.880;2023-05-27T11:46:43;98547.44;;;23.49;54.83
38880;BME280;25887;30.194;-97.880;2023-05-27T11:49:11;98560.72;;;23.46;54.85
38880;BME280;25887;30.194;-97.880;2023-05-27T11:51:40;98558.31;;;23.41;54.93
38880;BME280;25887;30.194;-97.880;2023-05-27T11:54:07;98567.19;;;23.39;55.21
38880;BME280;25887;30.194;-97.880;2023-05-27T11:56:33;98556.78;;;23.37;55.36
38880;BME280;25887;30.194;-97.880;2023-05-27T11:58:59;98562.09;;;23.35;55.01
38880;BME280;25887;30.194;-97.880;2023-05-27T12:01:26;98556.06;;;23.33;55.09
38880;BME280;25887;30.194;-97.880;2023-05-27T12:03:52;98552.69;;;23.31;54.89
38880;BME280;25887;30.194;-97.880;2023-05-27T12:06:18;98556.31;;;23.29;55.05
38880;BME280;25887;30.194;-97.880;2023-05-27T12:08:44;98555.47;;;23.28;55.37
38880;BME280;25887;30.194;-97.880;2023-05-27T12:11:10;98558.84;;;23.30;55.38
38880;BME280;25887;30.194;-97.880;2023-05-27T12:13:37;98554.53;;;23.29;55.49
38880;BME280;25887;30.194;-97.880;2023-05-27T12:16:03;98555.31;;;23.31;55.21
38880;BME280;25887;30.194;-97.880;2023-05-27T12:18:54;98568.19;;;23.36;55.50
38880;BME280;25887;30.194;-97.880;2023-05-27T12:46:39;98597.72;;;23.40;55.82
38880;BME280;25887;30.194;-97.880;2023-05-27T12:49:10;98592.66;;;23.37;56.19
38880;BME280;25887;30.194;-97.880;2023-05-27T12:58:54;98600.81;;;23.48;55.75
38880;BME280;25887;30.194;-97.880;2023-05-27T13:01:51;98611.22;;;23.49;55.94
38880;BME280;25887;30.194;-97.880;2023-05-27T13:04:17;98624.13;;;23.54;56.21
38880;BME280;25887;30.194;-97.880;2023-05-27T13:06:43;98619.53;;;23.59;56.10
38880;BME280;25887;30.194;-97.880;2023-05-27T13:09:09;98626.25;;;23.65;56.01
38880;BME280;25887;30.194;-97.880;2023-05-27T13:11:35;98624.34;;;23.68;56.34
38880;BME280;25887;30.194;-97.880;2023-05-27T13:14:02;98636.25;;;23.75;56.47
38880;BME280;25887;30.194;-97.880;2023-05-27T13:16:35;98635.94;;;23.81;56.27
38880;BME280;25887;30.194;-97.880;2023-05-27T13:19:01;98634.84;;;23.85;56.25
38880;BME280;25887;30.194;-97.880;2023-05-27T13:21:28;98636.41;;;23.89;56.34
38880;BME280;25887;30.194;-97.880;2023-05-27T13:23:54;98634.28;;;23.96;56.41
38880;BME280;25887;30.194;-97.880;2023-05-27T13:26:44;98636.53;;;24.04;56.47